Time;durP1;ratioP1;P1;durP2;ratioP2;P2;SDS_P1;SDS_P2;PMS_P1;PMS_P2;Temp;Humidity;BMP_temperature;BMP_pressure;BME280_temperature;BME280_humidity;BME280_pressure;Samples;Min_cycle;Max_cycle;Signal;HPM_P1;HPM_P2
2023/02/11 00:01:35;;;;;;;41.28;12.63;;;;;;;;;;5019464;28;20057;-72
2023/02/11 00:04:02;;;;;;;37.33;12.27;;;;;;;;;;5029536;28;20397;-72
2023/02/11 00:06:31;;;;;;;43.92;14.27;;;;;;;;;;5033449;28;20076;-73
2023/02/11 00:08:57;;;;;;;43.28;14.57;;;;;;;;;;5016921;28;20038;-72
2023/02/11 00:11:25;;;;;;;43.83;13.13;;;;;;;;;;5018299;28;20110;-72
2023/02/11 00:13:50;;;;;;;46.97;13.73;;;;;;;;;;5013094;28;20454;-72
2023/02/11 00:16:18;;;;;;;47.08;13.75;;;;;;;;;;5026627;28;20125;-72
2023/02/11 00:18:44;;;;;;;37.30;12.75;;;;;;;;;;5015491;28;20109;-73
2023/02/11 00:21:20;;;;;;;38.90;13.32;;;;;;;;;;5014555;28;20442;-72
2023/02/11 00:23:46;;;;;;;43.88;14.02;;;;;;;;;;5024514;28;20045;-72
2023/02/11 00:26:17;;;;;;;56.28;15.40;;;;;;;;;;5017737;28;20052;-72
2023/02/11 00:28:42;;;;;;;36.22;13.48;;;;;;;;;;5019232;28;20474;-72
2023/02/11 00:31:08;;;;;;;34.85;13.32;;;;;;;;;;5029657;28;20037;-72
2023/02/11 00:33:33;;;;;;;41.53;13.48;;;;;;;;;;5025317;28;20371;-73
2023/02/11 00:36:03;;;;;;;51.28;13.68;;;;;;;;;;5014517;28;20520;-73
2023/02/11 00:38:29;;;;;;;39.80;12.05;;;;;;;;;;5029744;28;20038;-72
2023/02/11 00:40:54;;;;;;;41.53;12.93;;;;;;;;;;5015713;28;20053;-72
2023/02/11 00:43:19;;;;;;;46.92;14.70;;;;;;;;;;5019276;28;20066;-73
2023/02/11 00:45:45;;;;;;;55.30;15.10;;;;;;;;;;5015705;28;20057;-72
2023/02/11 00:48:10;;;;;;;56.03;15.38;;;;;;;;;;5024540;28;20038;-72
2023/02/11 00:50:35;;;;;;;50.17;16.58;;;;;;;;;;5027584;28;20049;-72
2023/02/11 00:53:01;;;;;;;58.17;17.38;;;;;;;;;;5013968;28;20050;-72
2023/02/11 00:55:26;;;;;;;59.13;18.55;;;;;;;;;;5020432;28;20026;-72
2023/02/11 00:57:52;;;;;;;61.78;17.00;;;;;;;;;;5022166;28;20374;-72
2023/02/11 01:00:17;;;;;;;55.10;19.02;;;;;;;;;;5018165;28;20045;-72
2023/02/11 01:02:42;;;;;;;72.07;18.30;;;;;;;;;;5026227;28;20037;-72
2023/02/11 01:05:08;;;;;;;46.90;16.27;;;;;;;;;;5021672;28;20490;-72
2023/02/11 01:07:33;;;;;;;57.03;17.02;;;;;;;;;;5014319;28;20073;-72
2023/02/11 01:09:58;;;;;;;43.67;16.10;;;;;;;;;;5027852;28;20056;-72
2023/02/11 01:12:24;;;;;;;70.50;18.20;;;;;;;;;;5021668;28;20049;-72
2023/02/11 01:14:50;;;;;;;52.85;16.35;;;;;;;;;;5018662;28;20482;-72
2023/02/11 01:17:15;;;;;;;57.47;14.98;;;;;;;;;;5013713;28;20029;-72
2023/02/11 01:19:41;;;;;;;54.53;14.82;;;;;;;;;;5017219;28;20030;-72
2023/02/11 01:22:06;;;;;;;62.47;17.13;;;;;;;;;;5028953;28;20124;-72
2023/02/11 01:24:32;;;;;;;68.47;21.00;;;;;;;;;;5023250;28;20057;-72
2023/02/11 01:26:57;;;;;;;70.93;18.48;;;;;;;;;;5028213;28;20069;-72
2023/02/11 01:29:23;;;;;;;56.28;17.25;;;;;;;;;;5026473;28;20041;-72
2023/02/11 01:31:48;;;;;;;51.22;17.27;;;;;;;;;;5017830;28;20022;-73
2023/02/11 01:34:14;;;;;;;52.85;15.43;;;;;;;;;;5018472;28;20441;-72
2023/02/11 01:36:40;;;;;;;57.97;16.17;;;;;;;;;;5017087;28;20141;-72
2023/02/11 01:39:05;;;;;;;48.15;15.30;;;;;;;;;;5020833;28;20039;-72
2023/02/11 01:41:31;;;;;;;43.63;15.43;;;;;;;;;;5023700;28;20042;-73
2023/02/11 01:43:56;;;;;;;45.80;14.40;;;;;;;;;;5015752;28;20052;-72
2023/02/11 01:46:36;;;;;;;37.90;13.98;;;;;;;;;;5015438;28;20022;-73
2023/02/11 01:49:06;;;;;;;44.25;13.07;;;;;;;;;;5030292;28;20033;-72
2023/02/11 01:51:41;;;;;;;40.80;13.23;;;;;;;;;;5016515;28;20030;-72
2023/02/11 02:00:04;;;;;;;38.60;13.98;;;;;;;;;;5023756;28;20076;-72
2023/02/11 02:02:45;;;;;;;33.92;11.95;;;;;;;;;;5013210;28;20389;-73
2023/02/11 02:05:39;;;;;;;33.45;13.15;;;;;;;;;;5019531;28;20045;-72
2023/02/11 02:08:28;;;;;;;42.67;15.20;;;;;;;;;;5015198;28;20092;-72
2023/02/11 02:10:55;;;;;;;48.17;13.77;;;;;;;;;;5018546;28;20112;-72
2023/02/11 02:13:22;;;;;;;40.80;12.95;;;;;;;;;;5019542;28;20057;-74
2023/02/11 02:16:01;;;;;;;48.22;13.35;;;;;;;;;;5023529;28;20038;-73
2023/02/11 02:18:49;;;;;;;38.75;13.20;;;;;;;;;;5007410;28;20042;-72
2023/02/11 02:21:30;;;;;;;38.38;13.40;;;;;;;;;;5022699;28;20493;-72
2023/02/11 02:23:58;;;;;;;31.83;12.73;;;;;;;;;;5020337;28;20505;-73
2023/02/11 02:26:29;;;;;;;35.78;13.43;;;;;;;;;;5021112;28;20038;-72
2023/02/11 02:29:00;;;;;;;37.00;12.65;;;;;;;;;;5022282;28;20120;-72
2023/02/11 02:32:03;;;;;;;28.42;12.30;;;;;;;;;;5024375;28;20042;-72
2023/02/11 02:34:48;;;;;;;35.55;12.25;;;;;;;;;;5012913;28;20030;-72
2023/02/11 02:37:32;;;;;;;33.63;11.35;;;;;;;;;;5022147;28;20033;-72
2023/02/11 02:40:01;;;;;;;21.25;9.98;;;;;;;;;;5021041;28;20140;-73
2023/02/11 02:42:26;;;;;;;29.70;11.85;;;;;;;;;;5020794;28;20034;-73
2023/02/11 02:44:52;;;;;;;26.27;11.35;;;;;;;;;;5021142;28;20037;-73
2023/02/11 02:47:18;;;;;;;30.58;11.07;;;;;;;;;;5020165;28;20076;-72
2023/02/11 02:49:43;;;;;;;29.00;10.75;;;;;;;;;;5019219;28;20514;-73
2023/02/11 02:52:17;;;;;;;26.60;11.05;;;;;;;;;;5021344;28;20457;-73
2023/02/11 02:54:42;;;;;;;28.45;10.98;;;;;;;;;;5014716;28;20044;-73
2023/02/11 02:57:45;;;;;;;25.88;11.30;;;;;;;;;;5031564;28;20370;-73
2023/02/11 03:00:25;;;;;;;26.02;11.43;;;;;;;;;;5016500;28;20124;-72
2023/02/11 03:03:14;;;;;;;29.35;12.35;;;;;;;;;;5025846;28;20230;-73
2023/02/11 03:05:53;;;;;;;21.10;11.10;;;;;;;;;;5015280;28;20417;-73
2023/02/11 03:08:33;;;;;;;25.80;12.55;;;;;;;;;;5026625;28;20065;-72
2023/02/11 03:11:00;;;;;;;26.23;11.73;;;;;;;;;;5023666;28;20046;-72
2023/02/11 03:13:32;;;;;;;24.42;11.45;;;;;;;;;;5017421;28;20037;-72
2023/02/11 03:16:01;;;;;;;27.00;11.68;;;;;;;;;;5014468;28;20048;-72
2023/02/11 03:18:28;;;;;;;25.63;12.52;;;;;;;;;;5018932;28;20083;-72
2023/02/11 03:20:54;;;;;;;27.67;12.13;;;;;;;;;;5015097;28;20045;-72
2023/02/11 03:23:26;;;;;;;23.27;11.02;;;;;;;;;;5026171;28;20022;-72
2023/02/11 03:26:18;;;;;;;25.85;11.85;;;;;;;;;;5023602;28;20470;-72
2023/02/11 03:28:47;;;;;;;26.02;10.70;;;;;;;;;;5017271;28;20084;-73
2023/02/11 03:31:36;;;;;;;27.00;11.60;;;;;;;;;;5022231;28;20473;-72
2023/02/11 03:34:08;;;;;;;23.77;11.88;;;;;;;;;;4991921;28;20057;-72
2023/02/11 03:36:52;;;;;;;25.38;11.20;;;;;;;;;;5017413;28;20045;-72
2023/02/11 03:39:24;;;;;;;26.03;11.67;;;;;;;;;;5027587;28;20108;-72
2023/02/11 03:41:50;;;;;;;21.20;10.00;;;;;;;;;;5042739;28;20124;-72
2023/02/11 03:44:16;;;;;;;26.90;10.02;;;;;;;;;;5015969;28;20022;-72
2023/02/11 03:46:44;;;;;;;25.00;10.32;;;;;;;;;;5021044;28;20030;-72
2023/02/11 03:49:11;;;;;;;26.67;9.70;;;;;;;;;;5026430;28;20038;-72
2023/02/11 03:51:37;;;;;;;20.85;8.98;;;;;;;;;;5023987;28;20069;-72
2023/02/11 03:54:08;;;;;;;21.83;10.27;;;;;;;;;;5027577;28;20490;-73
2023/02/11 03:56:38;;;;;;;20.67;9.43;;;;;;;;;;5026137;28;20041;-72
2023/02/11 03:59:04;;;;;;;28.23;10.23;;;;;;;;;;5020515;28;20025;-73
2023/02/11 04:01:29;;;;;;;21.92;10.27;;;;;;;;;;5024561;28;20397;-73
2023/02/11 04:03:55;;;;;;;21.60;9.48;;;;;;;;;;5019984;28;20041;-73
2023/02/11 04:06:20;;;;;;;23.55;9.85;;;;;;;;;;5014142;28;20030;-72
2023/02/11 04:08:45;;;;;;;16.13;8.25;;;;;;;;;;5019008;28;20041;-73
2023/02/11 04:11:11;;;;;;;19.27;8.25;;;;;;;;;;5019215;28;20136;-72
2023/02/11 04:13:36;;;;;;;18.58;8.57;;;;;;;;;;5025401;28;20060;-72
2023/02/11 04:16:01;;;;;;;18.30;7.95;;;;;;;;;;5031324;28;20424;-72
2023/02/11 04:18:27;;;;;;;20.25;8.75;;;;;;;;;;5022191;28;20120;-72
2023/02/11 04:20:52;;;;;;;23.90;9.40;;;;;;;;;;5019647;28;20037;-72
2023/02/11 04:23:18;;;;;;;20.35;10.25;;;;;;;;;;5030685;28;20037;-73
2023/02/11 04:25:43;;;;;;;22.67;9.45;;;;;;;;;;5020656;28;20065;-72
2023/02/11 04:28:08;;;;;;;23.60;9.63;;;;;;;;;;5013539;28;20031;-72
2023/02/11 04:30:34;;;;;;;24.58;11.35;;;;;;;;;;5023673;28;20041;-72
2023/02/11 04:32:59;;;;;;;24.65;10.93;;;;;;;;;;5023982;28;20040;-72
2023/02/11 04:35:25;;;;;;;30.35;11.57;;;;;;;;;;5021822;28;20037;-72
2023/02/11 04:37:50;;;;;;;23.88;10.88;;;;;;;;;;5021833;28;20421;-72
2023/02/11 04:40:15;;;;;;;23.13;10.85;;;;;;;;;;5013209;28;20478;-72
2023/02/11 04:42:41;;;;;;;24.10;9.23;;;;;;;;;;5017258;28;20030;-74
2023/02/11 04:45:07;;;;;;;17.27;8.43;;;;;;;;;;5014313;28;20046;-72
2023/02/11 04:47:32;;;;;;;19.52;9.77;;;;;;;;;;5021963;28;20060;-73
2023/02/11 04:49:58;;;;;;;21.02;8.93;;;;;;;;;;5014261;28;20059;-72
2023/02/11 04:52:23;;;;;;;21.55;8.02;;;;;;;;;;5024529;28;20482;-72
2023/02/11 04:54:49;;;;;;;15.15;7.63;;;;;;;;;;5022069;28;20092;-73
2023/02/11 04:57:14;;;;;;;22.15;8.70;;;;;;;;;;5027977;28;20492;-72
2023/02/11 04:59:40;;;;;;;18.15;8.05;;;;;;;;;;5027801;28;20049;-72
2023/02/11 05:02:05;;;;;;;16.65;8.48;;;;;;;;;;5023444;28;20080;-72
2023/02/11 05:04:30;;;;;;;22.27;7.93;;;;;;;;;;5018355;28;20114;-72
2023/02/11 05:06:56;;;;;;;18.55;7.80;;;;;;;;;;5024692;28;20037;-72
2023/02/11 05:09:21;;;;;;;19.67;7.75;;;;;;;;;;5022788;28;20033;-72
2023/02/11 05:11:47;;;;;;;19.40;8.32;;;;;;;;;;5027009;28;20532;-72
2023/02/11 05:14:12;;;;;;;16.58;7.05;;;;;;;;;;5027166;28;20037;-72
2023/02/11 05:16:37;;;;;;;15.70;7.95;;;;;;;;;;5025616;28;20478;-72
2023/02/11 05:19:03;;;;;;;16.38;6.50;;;;;;;;;;5016704;28;20037;-72
2023/02/11 05:21:29;;;;;;;15.95;7.22;;;;;;;;;;5034457;28;20050;-72
2023/02/11 05:23:54;;;;;;;17.35;7.32;;;;;;;;;;5029714;28;20087;-74
2023/02/11 05:26:19;;;;;;;14.88;7.03;;;;;;;;;;5025405;28;20029;-72
2023/02/11 05:28:45;;;;;;;16.50;7.88;;;;;;;;;;5022721;28;20049;-73
2023/02/11 05:31:13;;;;;;;15.45;7.93;;;;;;;;;;5023749;28;20124;-72
2023/02/11 05:33:39;;;;;;;15.63;7.50;;;;;;;;;;5024837;28;20029;-72
2023/02/11 05:36:07;;;;;;;20.35;8.63;;;;;;;;;;5021555;28;20038;-72
2023/02/11 05:38:33;;;;;;;14.48;8.13;;;;;;;;;;5023279;28;20065;-72
2023/02/11 05:40:59;;;;;;;24.35;8.88;;;;;;;;;;5027350;28;20115;-73
2023/02/11 05:43:24;;;;;;;16.60;7.28;;;;;;;;;;5018867;28;20069;-72
2023/02/11 05:45:50;;;;;;;15.32;7.35;;;;;;;;;;5018505;28;20121;-73
2023/02/11 05:48:16;;;;;;;21.45;7.97;;;;;;;;;;5026974;28;20040;-72
2023/02/11 05:50:42;;;;;;;16.40;6.90;;;;;;;;;;5021683;28;20045;-72
2023/02/11 05:53:07;;;;;;;15.13;6.68;;;;;;;;;;5024410;28;20498;-72
2023/02/11 05:55:32;;;;;;;12.10;6.30;;;;;;;;;;5028349;28;20030;-73
2023/02/11 05:57:58;;;;;;;13.68;5.90;;;;;;;;;;5024504;28;20497;-72
2023/02/11 06:00:24;;;;;;;11.80;5.68;;;;;;;;;;5021130;28;20112;-72
2023/02/11 06:02:49;;;;;;;12.93;6.15;;;;;;;;;;5023756;28;20088;-72
2023/02/11 06:05:14;;;;;;;18.92;6.55;;;;;;;;;;5008745;28;20042;-72
2023/02/11 06:07:40;;;;;;;14.65;5.80;;;;;;;;;;5028967;28;20584;-72
2023/02/11 06:10:06;;;;;;;12.15;5.72;;;;;;;;;;5027298;28;20018;-72
2023/02/11 06:12:31;;;;;;;15.25;6.25;;;;;;;;;;5022341;28;20042;-72
2023/02/11 06:14:57;;;;;;;11.75;5.10;;;;;;;;;;5022325;28;20052;-72
2023/02/11 06:17:22;;;;;;;11.50;5.15;;;;;;;;;;5018663;28;20090;-72
2023/02/11 06:19:48;;;;;;;10.55;5.55;;;;;;;;;;5028526;28;20042;-73
2023/02/11 06:22:13;;;;;;;11.15;5.20;;;;;;;;;;5028488;28;20034;-72
2023/02/11 06:24:39;;;;;;;10.63;5.18;;;;;;;;;;5023948;28;20017;-74
2023/02/11 06:27:05;;;;;;;10.00;4.60;;;;;;;;;;5031089;28;20041;-73
2023/02/11 06:29:30;;;;;;;11.52;4.57;;;;;;;;;;5025031;28;20072;-73
2023/02/11 06:31:56;;;;;;;11.82;4.72;;;;;;;;;;5023379;28;20066;-72
2023/02/11 06:34:21;;;;;;;8.65;4.18;;;;;;;;;;5018575;28;20470;-72
2023/02/11 06:36:47;;;;;;;10.13;4.65;;;;;;;;;;5023926;28;20038;-73
2023/02/11 06:39:13;;;;;;;10.25;4.25;;;;;;;;;;5030960;28;20057;-72
2023/02/11 06:41:38;;;;;;;8.75;4.45;;;;;;;;;;5020968;28;20045;-72
2023/02/11 06:44:04;;;;;;;7.15;4.03;;;;;;;;;;5021746;28;20037;-73
2023/02/11 06:46:29;;;;;;;11.40;4.57;;;;;;;;;;5016750;28;20037;-72
2023/02/11 06:48:55;;;;;;;9.02;4.10;;;;;;;;;;5016117;28;20077;-73
2023/02/11 06:51:20;;;;;;;13.43;5.03;;;;;;;;;;5017654;28;20128;-72
2023/02/11 06:53:46;;;;;;;8.25;4.07;;;;;;;;;;5027576;28;20046;-73
2023/02/11 06:56:14;;;;;;;10.57;4.82;;;;;;;;;;5027943;28;20490;-72
2023/02/11 06:58:40;;;;;;;7.68;4.63;;;;;;;;;;5026275;28;20034;-72
2023/02/11 07:01:07;;;;;;;13.65;4.75;;;;;;;;;;5020574;28;20045;-73
2023/02/11 07:03:37;;;;;;;9.63;4.40;;;;;;;;;;5032345;28;20060;-72
2023/02/11 07:06:04;;;;;;;10.20;4.60;;;;;;;;;;5026931;28;20497;-72
2023/02/11 07:08:30;;;;;;;9.98;4.20;;;;;;;;;;5017727;28;20119;-72
2023/02/11 07:10:55;;;;;;;9.93;4.22;;;;;;;;;;5017449;28;20169;-72
2023/02/11 07:13:21;;;;;;;8.82;4.07;;;;;;;;;;5026435;28;20049;-72
2023/02/11 07:15:46;;;;;;;14.27;4.20;;;;;;;;;;5023626;28;20040;-73
2023/02/11 07:18:11;;;;;;;7.47;3.45;;;;;;;;;;5020176;28;20470;-72
2023/02/11 07:20:37;;;;;;;8.23;3.72;;;;;;;;;;5027259;28;20040;-72
2023/02/11 07:23:03;;;;;;;8.13;4.05;;;;;;;;;;5021595;28;20030;-72
2023/02/11 07:25:29;;;;;;;7.63;3.85;;;;;;;;;;5022621;28;20432;-72
2023/02/11 07:27:55;;;;;;;7.00;3.40;;;;;;;;;;5023886;28;20045;-72
2023/02/11 07:30:20;;;;;;;6.25;3.42;;;;;;;;;;5025045;28;20057;-72
2023/02/11 07:32:45;;;;;;;7.15;3.83;;;;;;;;;;5024191;28;20096;-73
2023/02/11 07:35:11;;;;;;;8.88;3.80;;;;;;;;;;5022160;28;20037;-72
2023/02/11 07:37:36;;;;;;;11.38;5.35;;;;;;;;;;5024092;28;20071;-72
2023/02/11 07:40:02;;;;;;;21.15;6.93;;;;;;;;;;5032000;28;20121;-72
2023/02/11 07:42:28;;;;;;;10.45;6.20;;;;;;;;;;5022096;28;20402;-72
2023/02/11 07:44:53;;;;;;;16.80;7.15;;;;;;;;;;5027456;28;20040;-72
2023/02/11 07:47:19;;;;;;;11.98;4.30;;;;;;;;;;5032259;28;20046;-72
2023/02/11 07:49:44;;;;;;;6.95;3.45;;;;;;;;;;5021589;28;20510;-72
2023/02/11 07:52:10;;;;;;;8.50;3.90;;;;;;;;;;5023300;28;20537;-72
2023/02/11 07:54:35;;;;;;;8.73;3.60;;;;;;;;;;5029154;28;20116;-72
2023/02/11 07:57:00;;;;;;;7.72;4.00;;;;;;;;;;5023536;28;20037;-72
2023/02/11 07:59:26;;;;;;;7.78;3.72;;;;;;;;;;5022388;28;20034;-73
2023/02/11 08:01:51;;;;;;;9.05;3.60;;;;;;;;;;5022716;28;20033;-73
2023/02/11 08:04:17;;;;;;;7.57;3.88;;;;;;;;;;5017277;28;20034;-72
2023/02/11 08:06:42;;;;;;;7.72;3.33;;;;;;;;;;5016630;28;20033;-75
2023/02/11 08:09:13;;;;;;;6.68;3.75;;;;;;;;;;5020261;28;20486;-73
2023/02/11 08:11:39;;;;;;;15.77;5.72;;;;;;;;;;5020067;28;20037;-72
2023/02/11 08:14:04;;;;;;;15.45;6.65;;;;;;;;;;5020464;28;20091;-72
2023/02/11 08:16:32;;;;;;;10.45;4.88;;;;;;;;;;5018387;28;20104;-72
2023/02/11 08:19:00;;;;;;;7.28;3.40;;;;;;;;;;5015082;28;20125;-72
2023/02/11 08:21:26;;;;;;;8.07;3.50;;;;;;;;;;5023169;28;20036;-72
2023/02/11 08:23:51;;;;;;;8.40;3.90;;;;;;;;;;5014791;28;20042;-72
2023/02/11 08:26:22;;;;;;;7.43;3.33;;;;;;;;;;5019471;28;20049;-72
2023/02/11 08:28:48;;;;;;;5.75;3.13;;;;;;;;;;5022847;28;20470;-72
2023/02/11 08:31:20;;;;;;;7.72;3.45;;;;;;;;;;5043709;28;20124;-73
2023/02/11 08:33:45;;;;;;;9.05;3.83;;;;;;;;;;5019866;28;20125;-72
2023/02/11 08:36:19;;;;;;;12.15;4.93;;;;;;;;;;5021504;28;20108;-72
2023/02/11 08:38:45;;;;;;;8.48;3.95;;;;;;;;;;5020813;28;20434;-72
2023/02/11 08:41:10;;;;;;;10.93;4.22;;;;;;;;;;5016540;28;20048;-72
2023/02/11 08:43:40;;;;;;;9.60;4.13;;;;;;;;;;5020670;28;20067;-72
2023/02/11 08:46:07;;;;;;;12.40;5.00;;;;;;;;;;5013780;28;20362;-73
2023/02/11 08:48:32;;;;;;;12.57;4.40;;;;;;;;;;5020063;28;20484;-73
2023/02/11 08:50:58;;;;;;;13.32;4.68;;;;;;;;;;5020898;28;20033;-72
2023/02/11 08:53:23;;;;;;;10.82;4.20;;;;;;;;;;5020796;28;20386;-72
2023/02/11 08:55:50;;;;;;;7.05;3.53;;;;;;;;;;5022147;28;20060;-73
2023/02/11 08:58:15;;;;;;;6.32;3.55;;;;;;;;;;5021183;28;20501;-73
2023/02/11 09:00:44;;;;;;;7.68;3.38;;;;;;;;;;5016326;28;20044;-72
2023/02/11 09:03:10;;;;;;;5.43;3.10;;;;;;;;;;5026583;28;20053;-73
2023/02/11 09:05:40;;;;;;;7.57;3.13;;;;;;;;;;5010277;28;20088;-72
2023/02/11 09:08:06;;;;;;;7.72;3.55;;;;;;;;;;5028911;28;20045;-77
2023/02/11 09:10:32;;;;;;;9.65;3.83;;;;;;;;;;5004966;28;20036;-72
2023/02/11 09:12:57;;;;;;;6.75;3.13;;;;;;;;;;5018937;28;20044;-72
2023/02/11 09:15:22;;;;;;;11.23;4.22;;;;;;;;;;5015500;28;20037;-72
2023/02/11 09:17:48;;;;;;;7.50;3.72;;;;;;;;;;5018897;28;20034;-73
2023/02/11 09:20:13;;;;;;;8.38;3.17;;;;;;;;;;5018294;28;20049;-73
2023/02/11 09:22:38;;;;;;;6.38;3.60;;;;;;;;;;5020601;28;20984;-73
2023/02/11 09:25:04;;;;;;;9.13;4.97;;;;;;;;;;5018133;28;20033;-73
2023/02/11 09:27:29;;;;;;;20.10;8.23;;;;;;;;;;5027611;28;20066;-73
2023/02/11 09:29:55;;;;;;;11.05;5.88;;;;;;;;;;5021989;28;20033;-73
2023/02/11 09:32:20;;;;;;;9.27;5.80;;;;;;;;;;5019781;28;20114;-73
2023/02/11 09:34:45;;;;;;;15.90;7.03;;;;;;;;;;5016371;28;20038;-73
2023/02/11 09:37:11;;;;;;;16.63;8.20;;;;;;;;;;5020312;28;20443;-73
2023/02/11 09:39:36;;;;;;;18.55;7.72;;;;;;;;;;5026628;28;20048;-72
2023/02/11 09:42:20;;;;;;;19.55;10.05;;;;;;;;;;5032809;28;20044;-73
2023/02/11 09:44:46;;;;;;;20.20;7.95;;;;;;;;;;5030771;28;20124;-73
2023/02/11 09:47:23;;;;;;;18.40;7.35;;;;;;;;;;5023693;28;20120;-73
2023/02/11 09:49:52;;;;;;;15.73;6.53;;;;;;;;;;5017629;28;20042;-73
2023/02/11 09:52:36;;;;;;;14.55;5.40;;;;;;;;;;5018129;28;20124;-72
2023/02/11 09:55:11;;;;;;;14.00;5.53;;;;;;;;;;5021781;28;20470;-73
2023/02/11 09:57:36;;;;;;;20.70;7.85;;;;;;;;;;5020320;28;20045;-73
2023/02/11 10:00:31;;;;;;;15.65;8.02;;;;;;;;;;5020280;28;20069;-74
2023/02/11 10:03:11;;;;;;;15.70;6.65;;;;;;;;;;4999622;28;20475;-73
2023/02/11 10:05:40;;;;;;;17.27;7.03;;;;;;;;;;5015618;28;20052;-73
2023/02/11 10:08:27;;;;;;;15.00;6.97;;;;;;;;;;5024947;28;20144;-72
2023/02/11 10:11:01;;;;;;;15.20;7.13;;;;;;;;;;5008688;28;20041;-74
2023/02/11 10:13:50;;;;;;;18.52;7.40;;;;;;;;;;5015280;28;20042;-73
2023/02/11 10:16:30;;;;;;;14.65;6.70;;;;;;;;;;5004736;28;20401;-73
2023/02/11 10:18:59;;;;;;;15.63;6.55;;;;;;;;;;5028880;28;20060;-73
2023/02/11 10:21:33;;;;;;;16.33;7.20;;;;;;;;;;5025437;28;20034;-72
2023/02/11 10:24:00;;;;;;;16.05;6.28;;;;;;;;;;5024146;28;20116;-72
2023/02/11 10:26:29;;;;;;;18.83;7.65;;;;;;;;;;5015560;28;20474;-72
2023/02/11 10:28:59;;;;;;;20.17;10.00;;;;;;;;;;5020870;28;20885;-74
2023/02/11 10:31:28;;;;;;;28.73;13.77;;;;;;;;;;5044291;28;20038;-73
2023/02/11 10:33:59;;;;;;;27.15;13.32;;;;;;;;;;5021600;28;20065;-73
2023/02/11 10:36:32;;;;;;;19.60;10.30;;;;;;;;;;5026909;28;20038;-73
2023/02/11 10:39:18;;;;;;;16.77;8.10;;;;;;;;;;5026745;28;20160;-73
2023/02/11 10:41:52;;;;;;;14.13;7.15;;;;;;;;;;5025634;28;20033;-73
2023/02/11 10:44:38;;;;;;;16.90;7.13;;;;;;;;;;4986733;28;20404;-73
2023/02/11 10:47:31;;;;;;;9.70;5.25;;;;;;;;;;5024054;28;20033;-72
2023/02/11 10:50:02;;;;;;;9.35;3.42;;;;;;;;;;5013496;28;20091;-72
2023/02/11 10:52:29;;;;;;;12.20;4.75;;;;;;;;;;5022899;28;20397;-72
2023/02/11 10:55:05;;;;;;;8.73;3.80;;;;;;;;;;5024055;28;20084;-73
2023/02/11 10:57:34;;;;;;;10.75;3.63;;;;;;;;;;5042811;28;20176;-73
2023/02/11 11:00:26;;;;;;;10.20;3.75;;;;;;;;;;5031421;28;20370;-72
2023/02/11 11:02:55;;;;;;;9.88;3.40;;;;;;;;;;5021730;28;20042;-72
2023/02/11 11:05:28;;;;;;;8.63;3.90;;;;;;;;;;5019895;28;20034;-72
2023/02/11 11:07:59;;;;;;;9.47;3.13;;;;;;;;;;5006139;28;20034;-73
2023/02/11 11:10:35;;;;;;;9.90;3.10;;;;;;;;;;5001971;28;20655;-72
2023/02/11 11:13:01;;;;;;;7.95;3.42;;;;;;;;;;5025628;28;20037;-73
2023/02/11 11:15:30;;;;;;;8.38;3.40;;;;;;;;;;5018477;28;20493;-73
2023/02/11 11:18:15;;;;;;;11.30;3.97;;;;;;;;;;5023933;28;20034;-73
2023/02/11 11:20:54;;;;;;;6.47;3.00;;;;;;;;;;5017143;28;20052;-72
2023/02/11 11:23:23;;;;;;;13.05;2.97;;;;;;;;;;5018841;28;20037;-73
2023/02/11 11:26:09;;;;;;;9.45;3.50;;;;;;;;;;5024942;28;20046;-72
2023/02/11 11:28:56;;;;;;;7.05;2.22;;;;;;;;;;5014577;28;20041;-73
2023/02/11 11:31:28;;;;;;;6.93;2.17;;;;;;;;;;5006856;28;20508;-73
2023/02/11 11:33:56;;;;;;;6.50;2.25;;;;;;;;;;5016435;28;20033;-73
2023/02/11 11:36:41;;;;;;;8.00;2.30;;;;;;;;;;5020160;28;20042;-73
2023/02/11 11:39:37;;;;;;;8.68;2.40;;;;;;;;;;5006520;28;20533;-73
2023/02/11 11:42:05;;;;;;;4.95;1.48;;;;;;;;;;5000794;28;20053;-73
2023/02/11 11:44:38;;;;;;;7.18;2.00;;;;;;;;;;5020959;28;20037;-72
2023/02/11 11:47:25;;;;;;;7.75;1.60;;;;;;;;;;5022460;28;20044;-73
2023/02/11 11:50:24;;;;;;;7.38;1.42;;;;;;;;;;5028025;28;20389;-73
2023/02/11 11:52:56;;;;;;;6.35;1.48;;;;;;;;;;5017751;28;20551;-72
2023/02/11 11:55:25;;;;;;;5.07;1.48;;;;;;;;;;5013899;28;20065;-73
2023/02/11 11:57:50;;;;;;;2.75;1.15;;;;;;;;;;5015784;28;20041;-72
2023/02/11 12:00:19;;;;;;;9.25;1.40;;;;;;;;;;5015377;28;20030;-73
2023/02/11 12:02:57;;;;;;;7.75;1.40;;;;;;;;;;5012815;28;20037;-72
2023/02/11 12:05:25;;;;;;;5.75;1.10;;;;;;;;;;5027057;28;20083;-72
2023/02/11 12:08:09;;;;;;;2.50;0.95;;;;;;;;;;5020450;28;20389;-73
2023/02/11 12:10:52;;;;;;;3.92;1.20;;;;;;;;;;5024277;28;20045;-72
2023/02/11 12:13:24;;;;;;;2.95;1.33;;;;;;;;;;5018389;28;20038;-73
2023/02/11 12:16:23;;;;;;;5.10;1.27;;;;;;;;;;5019435;28;20045;-73
2023/02/11 12:18:51;;;;;;;3.75;1.20;;;;;;;;;;5021971;28;20116;-73
2023/02/11 12:21:25;;;;;;;6.43;1.40;;;;;;;;;;5026494;28;20077;-73
2023/02/11 12:23:54;;;;;;;2.80;1.50;;;;;;;;;;5023324;28;20041;-73
2023/02/11 12:26:22;;;;;;;6.63;1.38;;;;;;;;;;5026367;28;20120;-73
2023/02/11 12:29:03;;;;;;;3.25;1.40;;;;;;;;;;5020689;28;20127;-72
2023/02/11 12:31:43;;;;;;;2.53;1.00;;;;;;;;;;5016984;28;20123;-72
2023/02/11 12:34:33;;;;;;;6.35;1.50;;;;;;;;;;5025697;28;20033;-73
2023/02/11 12:37:20;;;;;;;3.53;1.33;;;;;;;;;;5023715;28;20099;-73
2023/02/11 12:39:50;;;;;;;4.13;1.20;;;;;;;;;;5013789;28;20045;-72
2023/02/11 12:45:11;;;;;;;4.25;1.00;;;;;;;;;;5010701;28;20088;-73
2023/02/11 12:47:55;;;;;;;2.90;1.08;;;;;;;;;;5019807;28;20049;-73
2023/02/11 12:50:41;;;;;;;4.07;0.88;;;;;;;;;;5017047;28;20369;-74
2023/02/11 12:53:18;;;;;;;5.00;1.50;;;;;;;;;;5018039;28;20052;-73
2023/02/11 12:55:46;;;;;;;2.63;0.98;;;;;;;;;;5025641;28;20040;-72
2023/02/11 12:58:18;;;;;;;1.58;0.88;;;;;;;;;;5029334;28;20482;-73
2023/02/11 13:01:34;;;;;;;2.22;0.80;;;;;;;;;;5017603;28;20037;-72
2023/02/11 13:04:33;;;;;;;5.10;1.02;;;;;;;;;;4966367;28;20102;-73
2023/02/11 13:07:08;;;;;;;1.95;0.80;;;;;;;;;;4961547;28;20039;-73
2023/02/11 13:09:38;;;;;;;3.95;1.00;;;;;;;;;;4994191;28;20453;-73
2023/02/11 13:14:51;;;;;;;3.40;0.90;;;;;;;;;;5004655;28;20605;-72
2023/02/11 13:17:32;;;;;;;4.03;0.85;;;;;;;;;;5022511;28;20505;-73
2023/02/11 13:20:02;;;;;;;1.85;0.80;;;;;;;;;;5008881;28;20181;-73
2023/02/11 13:22:38;;;;;;;2.45;0.90;;;;;;;;;;5027507;28;20034;-72
2023/02/11 13:25:28;;;;;;;1.20;0.68;;;;;;;;;;5023561;28;20034;-73
2023/02/11 13:27:58;;;;;;;1.75;0.75;;;;;;;;;;5027142;28;20046;-76
2023/02/11 13:30:32;;;;;;;2.13;0.98;;;;;;;;;;5026917;28;20052;-73
2023/02/11 13:32:59;;;;;;;2.35;1.00;;;;;;;;;;4997725;28;20421;-73
2023/02/11 13:35:28;;;;;;;4.03;1.10;;;;;;;;;;5025979;28;20045;-73
2023/02/11 13:37:54;;;;;;;5.18;1.27;;;;;;;;;;5017082;28;20463;-72
2023/02/11 13:40:36;;;;;;;3.97;0.93;;;;;;;;;;5017171;28;20029;-73
2023/02/11 13:43:04;;;;;;;4.18;0.90;;;;;;;;;;5016870;28;20379;-73
2023/02/11 13:45:30;;;;;;;6.20;1.25;;;;;;;;;;5021006;28;20134;-73
2023/02/11 13:48:01;;;;;;;3.92;0.80;;;;;;;;;;5026323;28;20069;-73
2023/02/11 13:50:27;;;;;;;2.58;0.90;;;;;;;;;;5014863;28;20025;-73
2023/02/11 13:52:59;;;;;;;2.80;0.95;;;;;;;;;;5018533;28;20053;-76
2023/02/11 13:55:26;;;;;;;5.07;0.90;;;;;;;;;;5003760;28;20042;-73
2023/02/11 13:58:16;;;;;;;2.22;0.90;;;;;;;;;;5010726;28;20040;-73
2023/02/11 14:00:45;;;;;;;2.28;0.75;;;;;;;;;;5017081;28;20077;-73
2023/02/11 14:09:10;;;;;;;2.45;1.02;;;;;;;;;;5022550;28;20075;-72
2023/02/11 14:11:44;;;;;;;2.65;0.80;;;;;;;;;;5021191;28;20029;-72
2023/02/11 14:14:20;;;;;;;1.73;0.70;;;;;;;;;;5025140;28;20045;-73
2023/02/11 14:16:58;;;;;;;2.30;0.70;;;;;;;;;;5030669;28;20152;-72
2023/02/11 14:19:52;;;;;;;2.78;0.57;;;;;;;;;;5015911;28;20040;-72
2023/02/11 14:22:25;;;;;;;2.25;0.60;;;;;;;;;;5001910;28;20063;-72
2023/02/11 14:24:52;;;;;;;1.57;0.63;;;;;;;;;;5014921;28;20033;-72
2023/02/11 14:27:33;;;;;;;0.93;0.60;;;;;;;;;;5018976;28;20385;-72
2023/02/11 14:30:24;;;;;;;2.47;0.95;;;;;;;;;;5022088;28;20087;-73
2023/02/11 14:33:19;;;;;;;1.63;0.60;;;;;;;;;;5029902;28;20079;-73
2023/02/11 14:36:00;;;;;;;1.63;0.68;;;;;;;;;;5012381;28;20045;-72
2023/02/11 14:38:56;;;;;;;2.60;0.68;;;;;;;;;;5030645;28;20040;-72
2023/02/11 14:41:24;;;;;;;2.30;0.65;;;;;;;;;;5020117;28;20510;-73
2023/02/11 14:43:57;;;;;;;2.40;0.70;;;;;;;;;;5020150;28;20045;-73
2023/02/11 14:46:23;;;;;;;2.07;0.80;;;;;;;;;;5017274;28;20041;-73
2023/02/11 14:48:52;;;;;;;1.63;0.60;;;;;;;;;;5011847;28;20433;-73
2023/02/11 14:51:24;;;;;;;1.10;0.52;;;;;;;;;;5044647;28;20037;-72
2023/02/11 14:53:52;;;;;;;0.80;0.50;;;;;;;;;;5024821;28;20049;-74
2023/02/11 14:56:26;;;;;;;1.70;0.80;;;;;;;;;;5024043;28;20484;-73
2023/02/11 14:58:53;;;;;;;2.22;0.95;;;;;;;;;;5023446;28;20030;-72
2023/02/11 15:01:26;;;;;;;4.15;1.00;;;;;;;;;;5021989;28;20100;-77
2023/02/11 15:03:55;;;;;;;1.73;0.70;;;;;;;;;;5021522;28;20040;-73
2023/02/11 15:06:38;;;;;;;3.60;0.80;;;;;;;;;;5016621;28;20038;-73
2023/02/11 15:09:12;;;;;;;2.90;0.85;;;;;;;;;;5010898;28;20112;-72